^^
Datos históricos de la estación: Murcia-Puente Tocinos
Diario Informe para Noviembre 9, 2019 Unidades:  Ambas    Ingés   Métrico
Diario Semanal Mensual Anual
  Máxima: Mínima: Promedio:
Temperatura: 66.7 °F /  19.3 °C 53.4 °F /  11.9 °C 59 °F /  15 °C
Punto de rocio: 48.9 °F /  9.4 °C 31.8 °F /  -0.1 °C 37.2 °F /  2.9 °C
Humedad: 79% 30% 45%
Velocidad viento: 12.5mph /  20.1km/h - 6.6mph /  10.6km/h
Racha viento: 29mph /  46.7km/h - -
Viento- - OSO
Presión: 30.1 in /  1020.5 hPa 29.9 in /  1013.6 hPa -
Precipitación: 0.04 in /  1.0 mm    
 
 
Tabla de datos para Noviembre 9, 2019
Hora Temperatura Punto de rocio Presión Viento Velocidad viento Racha viento Humedad Intensidad lluvia(por hora) Nubes
00:04 57.6 °F /  14.2 °C 32.9 °F /  0.5 °C 30.1in /  1017.9hPa SO 6.5mph /  10.4km/h 13mph /  20.9km/h 39.2% 0in /  0.0mm
00:09 57.6 °F /  14.2 °C 32.9 °F /  0.5 °C 30.1in /  1018.0hPa SO 6.4mph /  10.3km/h 13.8mph /  22.2km/h 39.3% 0in /  0.0mm
00:14 57.4 °F /  14.1 °C 32.9 °F /  0.5 °C 30.1in /  1018.0hPa SO 7.2mph /  11.6km/h 14mph /  22.5km/h 39.6% 0in /  0.0mm
00:19 57.2 °F /  14 °C 33.1 °F /  0.6 °C 30.1in /  1018.0hPa SO 7.4mph /  11.9km/h 17.3mph /  27.8km/h 39.8% 0in /  0.0mm
00:24 57.2 °F /  14 °C 33.1 °F /  0.6 °C 30.1in /  1018.0hPa SO 8mph /  12.8km/h 17.3mph /  27.8km/h 39.9% 0in /  0.0mm
00:29 57.2 °F /  14 °C 33.1 °F /  0.6 °C 30.1in /  1018.0hPa SO 8.1mph /  13km/h 15mph /  24.1km/h 40% 0in /  0.0mm
00:34 57.2 °F /  14 °C 33.1 °F /  0.6 °C 30.1in /  1018.0hPa SO 8.4mph /  13.5km/h 14mph /  22.5km/h 40% 0in /  0.0mm
00:39 57.2 °F /  14 °C 33.1 °F /  0.6 °C 30.1in /  1018.3hPa SO 8.5mph /  13.7km/h 14mph /  22.5km/h 40% 0in /  0.0mm
00:44 57 °F /  13.9 °C 32.9 °F /  0.5 °C 30.1in /  1018.3hPa SO 7.8mph /  12.5km/h 15mph /  24.1km/h 40% 0in /  0.0mm
00:49 57 °F /  13.9 °C 32.9 °F /  0.5 °C 30.1in /  1018.3hPa SO 7.6mph /  12.2km/h 15mph /  24.1km/h 39.9% 0in /  0.0mm
00:54 57 °F /  13.9 °C 32.9 °F /  0.5 °C 30.1in /  1018.4hPa SO 7mph /  11.3km/h 13mph /  20.9km/h 40% 0in /  0.0mm
00:59 57 °F /  13.9 °C 32.5 °F /  0.3 °C 30.1in /  1018.4hPa SO 6.9mph /  11.1km/h 13.8mph /  22.2km/h 39.3% 0in /  0.0mm
01:04 57 °F /  13.9 °C 32.4 °F /  0.2 °C 30.1in /  1018.4hPa SO 7.5mph /  12.1km/h 15.2mph /  24.5km/h 39% 0in /  0.0mm
01:09 57.2 °F /  14 °C 32.4 °F /  0.2 °C 30.1in /  1018.5hPa SO 7.6mph /  12.2km/h 15mph /  24.1km/h 39% 0in /  0.0mm
01:14 57.6 °F /  14.2 °C 32.4 °F /  0.2 °C 30.1in /  1018.5hPa SO 8.5mph /  13.7km/h 20.7mph /  33.3km/h 38.3% 0in /  0.0mm
01:19 57.7 °F /  14.3 °C 32.4 °F /  0.2 °C 30.1in /  1018.5hPa OSO 8.7mph /  14km/h 21mph /  33.8km/h 38% 0in /  0.0mm
01:24 57.9 °F /  14.4 °C 32.4 °F /  0.2 °C 30.1in /  1018.5hPa SO 9.9mph /  16km/h 17.3mph /  27.8km/h 38% 0in /  0.0mm
01:29 57.9 °F /  14.4 °C 32.2 °F /  0.1 °C 30.1in /  1018.5hPa SO 10.2mph /  16.4km/h 17mph /  27.4km/h 37.7% 0in /  0.0mm
01:34 57.9 °F /  14.4 °C 31.8 °F /  -0.1 °C 30.1in /  1018.5hPa SO 9.8mph /  15.8km/h 15mph /  24.1km/h 37% 0in /  0.0mm
01:39 57.9 °F /  14.4 °C 31.8 °F /  -0.1 °C 30.1in /  1018.5hPa SO 9.7mph /  15.6km/h 17.3mph /  27.8km/h 37.1% 0in /  0.0mm
01:44 57.7 °F /  14.3 °C 32.2 °F /  0.1 °C 30.1in /  1018.5hPa SO 9.3mph /  14.9km/h 17mph /  27.4km/h 38% 0in /  0.0mm
01:49 57.6 °F /  14.2 °C 32 °F /  0 °C 30.1in /  1018.5hPa OSO 9.2mph /  14.8km/h 14mph /  22.5km/h 38% 0in /  0.0mm
01:54 57.2 °F /  14 °C 32.2 °F /  0.1 °C 30.1in /  1018.6hPa OSO 8.3mph /  13.4km/h 13mph /  20.9km/h 38.6% 0in /  0.0mm
01:59 56.8 °F /  13.8 °C 32.4 °F /  0.2 °C 30.1in /  1018.6hPa OSO 8.1mph /  13km/h 12mph /  19.3km/h 39.1% 0in /  0.0mm
02:04 56.5 °F /  13.6 °C 32.4 °F /  0.2 °C 30.1in /  1018.6hPa OSO 6.6mph /  10.7km/h 12.5mph /  20.1km/h 40% 0in /  0.0mm
02:09 56.3 °F /  13.5 °C 32.4 °F /  0.2 °C 30.1in /  1018.6hPa OSO 6.4mph /  10.3km/h 13mph /  20.9km/h 40% 0in /  0.0mm
02:14 56.3 °F /  13.5 °C 32.4 °F /  0.2 °C 30.1in /  1018.6hPa OSO 7.4mph /  11.9km/h 13.8mph /  22.2km/h 40% 0in /  0.0mm
02:19 56.5 °F /  13.6 °C 32.4 °F /  0.2 °C 30.1in /  1018.6hPa OSO 7.6mph /  12.2km/h 14mph /  22.5km/h 40% 0in /  0.0mm
02:24 56.7 °F /  13.7 °C 32.4 °F /  0.2 °C 30.1in /  1018.6hPa OSO 7.6mph /  12.2km/h 14mph /  22.5km/h 39.5% 0in /  0.0mm
02:29 56.8 °F /  13.8 °C 32.2 °F /  0.1 °C 30.1in /  1018.3hPa OSO 7.6mph /  12.2km/h 13mph /  20.9km/h 39% 0in /  0.0mm
02:34 56.8 °F /  13.8 °C 32.2 °F /  0.1 °C 30.1in /  1018.3hPa OSO 8mph /  12.9km/h 13.7mph /  22km/h 39% 0in /  0.0mm
02:39 56.8 °F /  13.8 °C 32.2 °F /  0.1 °C 30.1in /  1018.4hPa OSO 8.1mph /  13km/h 14mph /  22.5km/h 39% 0in /  0.0mm
02:44 56.8 °F /  13.8 °C 32.2 °F /  0.1 °C 30.1in /  1018.4hPa OSO 7.7mph /  12.4km/h 15mph /  24.1km/h 39% 0in /  0.0mm
02:49 56.8 °F /  13.8 °C 32.2 °F /  0.1 °C 30.1in /  1018.4hPa OSO 7.6mph /  12.2km/h 15mph /  24.1km/h 39% 0in /  0.0mm
02:54 56.7 °F /  13.7 °C 32.4 °F /  0.2 °C 30.1in /  1018.5hPa OSO 7.6mph /  12.2km/h 14mph /  22.5km/h 39.6% 0in /  0.0mm
02:59 56.3 °F /  13.5 °C 32.4 °F /  0.2 °C 30.1in /  1018.5hPa OSO 7.6mph /  12.2km/h 12mph /  19.3km/h 40% 0in /  0.0mm
03:04 55.9 °F /  13.3 °C 32.2 °F /  0.1 °C 30.1in /  1018.5hPa OSO 6.4mph /  10.3km/h 10.2mph /  16.4km/h 40.4% 0in /  0.0mm
03:09 55.8 °F /  13.2 °C 32.4 °F /  0.2 °C 30.1in /  1018.5hPa OSO 6.2mph /  10km/h 10.4mph /  16.7km/h 41% 0in /  0.0mm
03:14 55.6 °F /  13.1 °C 32.2 °F /  0.1 °C 30.1in /  1018.5hPa OSO 6.2mph /  10km/h 11mph /  17.7km/h 41% 0in /  0.0mm
03:19 55.4 °F /  13 °C 32.2 °F /  0.1 °C 30.1in /  1018.5hPa OSO 6.2mph /  10km/h 10.7mph /  17.2km/h 41.1% 0in /  0.0mm
03:24 55.2 °F /  12.9 °C 32.5 °F /  0.3 °C 30.1in /  1018.6hPa OSO 6.2mph /  10km/h 11mph /  17.7km/h 42% 0in /  0.0mm
03:29 55 °F /  12.8 °C 32.4 °F /  0.2 °C 30.1in /  1018.6hPa OSO 6.2mph /  10km/h 11.8mph /  19km/h 42% 0in /  0.0mm
03:34 55 °F /  12.8 °C 32.4 °F /  0.2 °C 30.1in /  1018.6hPa OSO 6.2mph /  10km/h 13.5mph /  21.7km/h 42% 0in /  0.0mm
03:39 55 °F /  12.8 °C 32.4 °F /  0.2 °C 30.1in /  1018.6hPa OSO 6.2mph /  10km/h 13mph /  20.9km/h 42% 0in /  0.0mm
03:44 55 °F /  12.8 °C 32.4 °F /  0.2 °C 30.1in /  1018.6hPa OSO 6.3mph /  10.2km/h 12mph /  19.3km/h 42% 0in /  0.0mm
03:49 54.9 °F /  12.7 °C 32.2 °F /  0.1 °C 30.1in /  1018.6hPa OSO 6.4mph /  10.3km/h 13.8mph /  22.2km/h 42% 0in /  0.0mm
03:54 55 °F /  12.8 °C 32.4 °F /  0.2 °C 30.1in /  1018.6hPa OSO 6.4mph /  10.3km/h 14mph /  22.5km/h 42% 0in /  0.0mm
03:59 55.2 °F /  12.9 °C 32.5 °F /  0.3 °C 30.1in /  1018.5hPa OSO 6.4mph /  10.3km/h 15mph /  24.1km/h 42% 0in /  0.0mm
04:04 55.2 °F /  12.9 °C 32.5 °F /  0.3 °C 30.1in /  1018.5hPa OSO 7.9mph /  12.7km/h 15mph /  24.1km/h 42% 0in /  0.0mm
04:09 55 °F /  12.8 °C 32.7 °F /  0.4 °C 30.1in /  1018.5hPa OSO 8.1mph /  13km/h 15mph /  24.1km/h 42.6% 0in /  0.0mm
04:14 55 °F /  12.8 °C 33.1 °F /  0.6 °C 30.1in /  1018.4hPa OSO 8.4mph /  13.6km/h 14mph /  22.5km/h 43% 0in /  0.0mm
04:19 55.2 °F /  12.9 °C 33.1 °F /  0.6 °C 30.1in /  1018.4hPa OSO 8.5mph /  13.7km/h 17.3mph /  27.8km/h 43% 0in /  0.0mm
04:24 55.4 °F /  13 °C 33.3 °F /  0.7 °C 30.1in /  1018.4hPa Oeste 8.6mph /  13.9km/h 17mph /  27.4km/h 43% 0in /  0.0mm
04:29 55.4 °F /  13 °C 33.3 °F /  0.7 °C 30.1in /  1018.2hPa Oeste 8.7mph /  14km/h 20.8mph /  33.5km/h 43% 0in /  0.0mm
04:34 55.8 °F /  13.2 °C 33.4 °F /  0.8 °C 30.1in /  1018.2hPa Oeste 8.2mph /  13.2km/h 21mph /  33.8km/h 43% 0in /  0.0mm
04:39 55.8 °F /  13.2 °C 33.6 °F /  0.9 °C 30.1in /  1018.2hPa Oeste 8.1mph /  13km/h 18.5mph /  29.8km/h 43% 0in /  0.0mm
04:44 55.9 °F /  13.3 °C 33.8 °F /  1 °C 30.1in /  1018.1hPa Oeste 9mph /  14.5km/h 19mph /  30.6km/h 43% 0in /  0.0mm
04:49 55.8 °F /  13.2 °C 33.6 °F /  0.9 °C 30.1in /  1018.1hPa Oeste 9.2mph /  14.8km/h 15mph /  24.1km/h 43% 0in /  0.0mm
04:54 55.6 °F /  13.1 °C 33.6 °F /  0.9 °C 30.1in /  1018.1hPa OSO 8.3mph /  13.4km/h 16.3mph /  26.2km/h 43.5% 0in /  0.0mm
04:59 55.6 °F /  13.1 °C 34 °F /  1.1 °C 30.1in /  1018.1hPa OSO 8.1mph /  13km/h 16.1mph /  25.9km/h 43.9% 0in /  0.0mm
05:04 55.4 °F /  13 °C 33.8 °F /  1 °C 30.1in /  1018.1hPa OSO 9.1mph /  14.6km/h 15mph /  24.1km/h 44% 0in /  0.0mm
05:09 55 °F /  12.8 °C 33.6 °F /  0.9 °C 30.1in /  1018.1hPa OSO 9.2mph /  14.8km/h 15mph /  24.1km/h 44% 0in /  0.0mm
05:14 55 °F /  12.8 °C 34 °F /  1.1 °C 30.1in /  1018.1hPa OSO 7.8mph /  12.5km/h 15mph /  24.1km/h 44.8% 0in /  0.0mm
05:19 55 °F /  12.8 °C 34.2 °F /  1.2 °C 30.1in /  1018.1hPa OSO 7.4mph /  11.9km/h 13mph /  20.9km/h 45% 0in /  0.0mm
05:24 55 °F /  12.8 °C 34 °F /  1.1 °C 30.1in /  1018.2hPa Oeste 7.6mph /  12.2km/h 19mph /  30.6km/h 45% 0in /  0.0mm
05:29 54.9 °F /  12.7 °C 34 °F /  1.1 °C 30.1in /  1018.2hPa Oeste 7.6mph /  12.2km/h 19mph /  30.6km/h 45.2% 0in /  0.0mm
05:34 54.9 °F /  12.7 °C 34.5 °F /  1.4 °C 30.1in /  1018.2hPa Oeste 9.6mph /  15.4km/h 17mph /  27.4km/h 46% 0in /  0.0mm
05:39 54.9 °F /  12.7 °C 34.5 °F /  1.4 °C 30.1in /  1018.4hPa Oeste 10mph /  16.1km/h 16.1mph /  25.9km/h 46% 0in /  0.0mm
05:44 55 °F /  12.8 °C 34.5 °F /  1.4 °C 30.1in /  1018.4hPa OSO 10.2mph /  16.4km/h 20.7mph /  33.3km/h 45.8% 0in /  0.0mm
05:49 55.6 °F /  13.1 °C 34.5 °F /  1.4 °C 30.1in /  1018.4hPa OSO 10.2mph /  16.4km/h 21mph /  33.8km/h 45% 0in /  0.0mm
05:54 55.8 °F /  13.2 °C 34.5 °F /  1.4 °C 30.1in /  1018.4hPa OSO 10.1mph /  16.2km/h 18.4mph /  29.6km/h 44.5% 0in /  0.0mm
05:59 56.1 °F /  13.4 °C 34.5 °F /  1.4 °C 30.1in /  1018.4hPa OSO 10mph /  16.1km/h 18.5mph /  29.8km/h 44% 0in /  0.0mm
06:04 56.1 °F /  13.4 °C 34.5 °F /  1.4 °C 30.1in /  1018.4hPa OSO 11.2mph /  18km/h 19mph /  30.6km/h 44% 0in /  0.0mm
06:09 56.1 °F /  13.4 °C 34.5 °F /  1.4 °C 30.1in /  1018.6hPa OSO 11.4mph /  18.4km/h 19.6mph /  31.5km/h 44% 0in /  0.0mm
06:14 56.1 °F /  13.4 °C 34.5 °F /  1.4 °C 30.1in /  1018.6hPa OSO 11.4mph /  18.4km/h 20.8mph /  33.5km/h 44% 0in /  0.0mm
06:19 55.9 °F /  13.3 °C 34.3 °F /  1.3 °C 30.1in /  1018.6hPa Oeste 11.4mph /  18.4km/h 21mph /  33.8km/h 44% 0in /  0.0mm
06:24 55.8 °F /  13.2 °C 34.5 °F /  1.4 °C 30.1in /  1018.8hPa OSO 10.4mph /  16.8km/h 22.5mph /  36.2km/h 44.7% 0in /  0.0mm
06:29 55.8 °F /  13.2 °C 34.7 °F /  1.5 °C 30.1in /  1018.8hPa OSO 10.2mph /  16.4km/h 24.2mph /  38.9km/h 45% 0in /  0.0mm
06:34 55.6 °F /  13.1 °C 34.7 °F /  1.5 °C 30.1in /  1018.8hPa OSO 12.1mph /  19.4km/h 24mph /  38.6km/h 45% 0in /  0.0mm
06:39 55.2 °F /  12.9 °C 34.3 °F /  1.3 °C 30.1in /  1018.8hPa OSO 12.5mph /  20.1km/h 24.6mph /  39.6km/h 45% 0in /  0.0mm
06:44 55.2 °F /  12.9 °C 34.2 °F /  1.2 °C 30.1in /  1018.8hPa OSO 10.4mph /  16.8km/h 25mph /  40.2km/h 45% 0in /  0.0mm
06:49 55.2 °F /  12.9 °C 34.7 °F /  1.5 °C 30.1in /  1018.8hPa OSO 10mph /  16.1km/h 22mph /  35.4km/h 45.7% 0in /  0.0mm
06:54 55.2 °F /  12.9 °C 34.7 °F /  1.5 °C 30.1in /  1019.0hPa OSO 10.6mph /  17km/h 22mph /  35.4km/h 46% 0in /  0.0mm
06:59 55.2 °F /  12.9 °C 34.7 °F /  1.5 °C 30.1in /  1019.0hPa Oeste 10.7mph /  17.2km/h 21.9mph /  35.2km/h 46% 0in /  0.0mm
07:04 55 °F /  12.8 °C 34.7 °F /  1.5 °C 30.1in /  1019.0hPa Oeste 10.3mph /  16.5km/h 22mph /  35.4km/h 46% 0in /  0.0mm
07:09 55 °F /  12.8 °C 35.1 °F /  1.7 °C 30.1in /  1019.1hPa OSO 10.2mph /  16.4km/h 28.6mph /  46km/h 46.6% 0in /  0.0mm
07:14 55.4 °F /  13 °C 34.9 °F /  1.6 °C 30.1in /  1019.1hPa OSO 10.2mph /  16.4km/h 29mph /  46.7km/h 46% 0in /  0.0mm
07:19 55.6 °F /  13.1 °C 34.7 °F /  1.5 °C 30.1in /  1019.1hPa OSO 10.2mph /  16.4km/h 23mph /  37km/h 45.3% 0in /  0.0mm
07:24 55.6 °F /  13.1 °C 35.1 °F /  1.7 °C 30.1in /  1019.2hPa Oeste 10.6mph /  17.1km/h 18mph /  29km/h 46% 0in /  0.0mm
07:29 55.2 °F /  12.9 °C 35.1 °F /  1.7 °C 30.1in /  1019.2hPa ONO 10.7mph /  17.2km/h 14mph /  22.5km/h 46.7% 0in /  0.0mm
07:34 54.5 °F /  12.5 °C 35.1 °F /  1.7 °C 30.1in /  1019.2hPa ONO 7.6mph /  12.3km/h 12.3mph /  19.8km/h 47.8% 0in /  0.0mm
07:39 54.1 °F /  12.3 °C 35.2 °F /  1.8 °C 30.1in /  1019.3hPa ONO 6.9mph /  11.1km/h 13mph /  20.9km/h 48.9% 0in /  0.0mm
07:44 54 °F /  12.2 °C 35.1 °F /  1.7 °C 30.1in /  1019.3hPa ONO 6.9mph /  11.1km/h 12mph /  19.3km/h 49% 0in /  0.0mm
07:49 53.8 °F /  12.1 °C 35.6 °F /  2 °C 30.1in /  1019.3hPa ONO 6.9mph /  11.1km/h 8.1mph /  13km/h 50% 0in /  0.0mm
07:54 53.6 °F /  12 °C 35.4 °F /  1.9 °C 30.1in /  1019.6hPa ONO 4.8mph /  7.7km/h 8.1mph /  13km/h 50% 0in /  0.0mm
07:59 53.6 °F /  12 °C 35.4 °F /  1.9 °C 30.1in /  1019.6hPa Oeste 4.3mph /  6.9km/h 8mph /  12.9km/h 50% 0in /  0.0mm
08:04 53.4 °F /  11.9 °C 35.2 °F /  1.8 °C 30.1in /  1019.6hPa Oeste 5.1mph /  8.2km/h 10.4mph /  16.7km/h 50% 0in /  0.0mm
08:09 53.8 °F /  12.1 °C 35.6 °F /  2 °C 30.1in /  1019.6hPa ONO 5.2mph /  8.4km/h 10mph /  16.1km/h 50% 0in /  0.0mm
08:14 54 °F /  12.2 °C 35.8 °F /  2.1 °C 30.1in /  1019.6hPa ONO 5.3mph /  8.6km/h 9.7mph /  15.6km/h 50% 0in /  0.0mm
08:19 54.1 °F /  12.3 °C 35.8 °F /  2.1 °C 30.1in /  1019.6hPa Oeste 5.4mph /  8.7km/h 11.8mph /  19km/h 49.9% 0in /  0.0mm
08:24 54.1 °F /  12.3 °C 35.8 °F /  2.1 °C 30.1in /  1019.7hPa Oeste 5.8mph /  9.3km/h 12.7mph /  20.4km/h 49.8% 0in /  0.0mm
08:29 54.5 °F /  12.5 °C 35.8 °F /  2.1 °C 30.1in /  1019.7hPa OSO 5.9mph /  9.5km/h 14mph /  22.5km/h 49.1% 0in /  0.0mm
08:34 54.9 °F /  12.7 °C 36 °F /  2.2 °C 30.1in /  1019.7hPa Oeste 7.1mph /  11.5km/h 14mph /  22.5km/h 48.9% 0in /  0.0mm
08:39 55 °F /  12.8 °C 36 °F /  2.2 °C 30.1in /  1019.9hPa OSO 7.4mph /  11.9km/h 14mph /  22.5km/h 48.4% 0in /  0.0mm
08:44 55 °F /  12.8 °C 36 °F /  2.2 °C 30.1in /  1019.9hPa OSO 7.4mph /  11.9km/h 14mph /  22.5km/h 48.5% 0in /  0.0mm
08:49 54.9 °F /  12.7 °C 36 °F /  2.2 °C 30.1in /  1019.9hPa OSO 7.4mph /  11.9km/h 10.4mph /  16.7km/h 49% 0in /  0.0mm
08:54 54.9 °F /  12.7 °C 36 °F /  2.2 °C 30.1in /  1020.0hPa OSO 6.4mph /  10.3km/h 13.8mph /  22.2km/h 48.7% 0in /  0.0mm
08:59 55 °F /  12.8 °C 36 °F /  2.2 °C 30.1in /  1020.0hPa OSO 6.2mph /  10km/h 14mph /  22.5km/h 48.6% 0in /  0.0mm
09:04 55.2 °F /  12.9 °C 36 °F /  2.2 °C 30.1in /  1020.0hPa OSO 7.2mph /  11.6km/h 14mph /  22.5km/h 48% 0in /  0.0mm
09:09 55.2 °F /  12.9 °C 36 °F /  2.2 °C 30.1in /  1020.1hPa OSO 7.4mph /  11.9km/h 14mph /  22.5km/h 48% 0in /  0.0mm
09:14 55.2 °F /  12.9 °C 36 °F /  2.2 °C 30.1in /  1020.1hPa SO 6.2mph /  9.9km/h 11mph /  17.7km/h 48% 0in /  0.0mm
09:19 55.2 °F /  12.9 °C 36 °F /  2.2 °C 30.1in /  1020.1hPa SO 5.9mph /  9.5km/h 8.1mph /  13km/h 48% 0in /  0.0mm
09:24 55.2 °F /  12.9 °C 36 °F /  2.2 °C 30.1in /  1020.4hPa SO 4.3mph /  7km/h 8mph /  12.9km/h 48% 0in /  0.0mm
09:29 55.6 °F /  13.1 °C 35.8 °F /  2.1 °C 30.1in /  1020.4hPa SSO 4mph /  6.5km/h 8.5mph /  13.7km/h 47.4% 0in /  0.0mm
09:34 55.6 °F /  13.1 °C 35.8 °F /  2.1 °C 30.1in /  1020.4hPa SO 4.2mph /  6.8km/h 11.5mph /  18.5km/h 47% 0in /  0.0mm
09:39 55.8 °F /  13.2 °C 35.8 °F /  2.1 °C 30.1in /  1020.5hPa SO 4.3mph /  6.9km/h 12mph /  19.3km/h 47% 0in /  0.0mm
09:44 55.8 °F /  13.2 °C 35.8 °F /  2.1 °C 30.1in /  1020.5hPa Sur 4.7mph /  7.5km/h 10mph /  16.1km/h 47% 0in /  0.0mm
09:49 55.8 °F /  13.2 °C 35.8 °F /  2.1 °C 30.1in /  1020.5hPa SSO 4.7mph /  7.6km/h 10.4mph /  16.7km/h 47% 0in /  0.0mm
09:54 55.8 °F /  13.2 °C 36 °F /  2.2 °C 30.1in /  1020.5hPa SSO 5.9mph /  9.5km/h 10mph /  16.1km/h 47.1% 0in /  0.0mm
09:59 55.8 °F /  13.2 °C 36 °F /  2.2 °C 30.1in /  1020.4hPa OSO 6.2mph /  10km/h 8.1mph /  13km/h 47.3% 0in /  0.0mm
10:04 55.9 °F /  13.3 °C 36 °F /  2.2 °C 30.1in /  1020.4hPa SO 4mph /  6.4km/h 9.2mph /  14.8km/h 47% 0in /  0.0mm
10:09 56.3 °F /  13.5 °C 36 °F /  2.2 °C 30.1in /  1020.4hPa OSO 3.6mph /  5.8km/h 10.4mph /  16.7km/h 46.3% 0in /  0.0mm
10:14 56.7 °F /  13.7 °C 35.6 °F /  2 °C 30.1in /  1020.2hPa OSO 5.1mph /  8.2km/h 12.7mph /  20.4km/h 45.1% 0in /  0.0mm
10:19 56.8 °F /  13.8 °C 36 °F /  2.2 °C 30.1in /  1020.2hPa OSO 5.4mph /  8.7km/h 13mph /  20.9km/h 45.3% 0in /  0.0mm
10:24 57 °F /  13.9 °C 36 °F /  2.2 °C 30.1in /  1020.2hPa OSO 6.6mph /  10.7km/h 13.8mph /  22.2km/h 45% 0in /  0.0mm
10:29 57.2 °F /  14 °C 36.3 °F /  2.4 °C 30.1in /  1020.2hPa OSO 6.9mph /  11.1km/h 14mph /  22.5km/h 45.4% 0in /  0.0mm
10:34 57.4 °F /  14.1 °C 36.3 °F /  2.4 °C 30.1in /  1020.2hPa Oeste 6.1mph /  9.8km/h 9mph /  14.5km/h 45.1% 0in /  0.0mm
10:39 57.7 °F /  14.3 °C 36.3 °F /  2.4 °C 30.1in /  1020.2hPa Oeste 5.9mph /  9.5km/h 13mph /  20.9km/h 44.5% 0in /  0.0mm
10:44 58.1 °F /  14.5 °C 35.8 °F /  2.1 °C 30.1in /  1020.2hPa Oeste 6.2mph /  9.9km/h 19.6mph /  31.5km/h 43.3% 0in /  0.0mm
10:49 58.5 °F /  14.7 °C 36 °F /  2.2 °C 30.1in /  1020.2hPa ONO 6.2mph /  10km/h 20mph /  32.2km/h 43% 0in /  0.0mm
10:54 58.6 °F /  14.8 °C 35.6 °F /  2 °C 30.1in /  1020.2hPa ONO 9.5mph /  15.3km/h 20mph /  32.2km/h 42% 0in /  0.0mm
10:59 58.8 °F /  14.9 °C 35.8 °F /  2.1 °C 30.1in /  1020.1hPa ONO 10.2mph /  16.4km/h 20mph /  32.2km/h 42% 0in /  0.0mm
11:04 59.2 °F /  15.1 °C 36.1 °F /  2.3 °C 30.1in /  1020.1hPa Oeste 9.3mph /  15km/h 17mph /  27.4km/h 42% 0in /  0.0mm
11:09 59.4 °F /  15.2 °C 35.4 °F /  1.9 °C 30.1in /  1020.1hPa OSO 9.2mph /  14.8km/h 18.4mph /  29.6km/h 40.5% 0in /  0.0mm
11:14 59.4 °F /  15.2 °C 35.1 °F /  1.7 °C 30.1in /  1020.1hPa OSO 7.9mph /  12.7km/h 18mph /  29km/h 40% 0in /  0.0mm
11:19 59.5 °F /  15.3 °C 35.1 °F /  1.7 °C 30.1in /  1020.1hPa Oeste 7.6mph /  12.2km/h 16.1mph /  25.9km/h 40% 0in /  0.0mm
11:24 59.7 °F /  15.4 °C 35.1 °F /  1.7 °C 30.1in /  1020.1hPa Oeste 8.5mph /  13.7km/h 15mph /  24.1km/h 39.7% 0in /  0.0mm
11:29 59.7 °F /  15.4 °C 35.2 °F /  1.8 °C 30.1in /  1019.9hPa Oeste 8.7mph /  14km/h 15mph /  24.1km/h 39.7% 0in /  0.0mm
11:34 60.1 °F /  15.6 °C 35.4 °F /  1.9 °C 30.1in /  1019.9hPa Oeste 7.2mph /  11.6km/h 15.2mph /  24.5km/h 39.5% 0in /  0.0mm
11:39 60.1 °F /  15.6 °C 35.1 °F /  1.7 °C 30.1in /  1019.9hPa ONO 6.9mph /  11.1km/h 17.3mph /  27.8km/h 39% 0in /  0.0mm
11:44 60.1 °F /  15.6 °C 35.1 °F /  1.7 °C 30.1in /  1019.8hPa Oeste 8.2mph /  13.2km/h 17mph /  27.4km/h 39% 0in /  0.0mm
11:49 60.3 °F /  15.7 °C 35.1 °F /  1.7 °C 30.1in /  1019.8hPa OSO 8.5mph /  13.7km/h 16mph /  25.7km/h 39% 0in /  0.0mm
11:54 60.4 °F /  15.8 °C 34.7 °F /  1.5 °C 30.1in /  1019.8hPa OSO 7.8mph /  12.5km/h 14mph /  22.5km/h 38% 0in /  0.0mm
11:59 60.6 °F /  15.9 °C 34.9 °F /  1.6 °C 30.1in /  1019.6hPa Oeste 7.6mph /  12.2km/h 17.5mph /  28.2km/h 38.1% 0in /  0.0mm
12:04 60.6 °F /  15.9 °C 34.9 °F /  1.6 °C 30.1in /  1019.6hPa ONO 8.3mph /  13.4km/h 17mph /  27.4km/h 38% 0in /  0.0mm
12:09 61 °F /  16.1 °C 34.9 °F /  1.6 °C 30.1in /  1019.6hPa Oeste 8.5mph /  13.7km/h 15mph /  24.1km/h 37.6% 0in /  0.0mm
12:14 61.2 °F /  16.2 °C 34.7 °F /  1.5 °C 30.1in /  1019.4hPa Oeste 6.8mph /  11km/h 17.3mph /  27.8km/h 37.1% 0in /  0.0mm
12:19 61.3 °F /  16.3 °C 34.9 °F /  1.6 °C 30.1in /  1019.4hPa OSO 6.4mph /  10.3km/h 17.3mph /  27.8km/h 37% 0in /  0.0mm
12:24 61.5 °F /  16.4 °C 35.1 °F /  1.7 °C 30.1in /  1019.4hPa OSO 7.4mph /  11.9km/h 15.2mph /  24.5km/h 37% 0in /  0.0mm
12:29 61.9 °F /  16.6 °C 34.7 °F /  1.5 °C 30.1in /  1019.2hPa Oeste 7.6mph /  12.2km/h 16.3mph /  26.2km/h 36.2% 0in /  0.0mm
12:34 62.1 °F /  16.7 °C 34.9 °F /  1.6 °C 30.1in /  1019.2hPa Oeste 7.6mph /  12.2km/h 16mph /  25.7km/h 36.1% 0in /  0.0mm
12:39 62.2 °F /  16.8 °C 34.9 °F /  1.6 °C 30.1in /  1019.2hPa Oeste 7.6mph /  12.2km/h 15mph /  24.1km/h 36% 0in /  0.0mm
12:44 62.4 °F /  16.9 °C 34.7 °F /  1.5 °C 30.1in /  1019.0hPa ONO 7.6mph /  12.2km/h 13.8mph /  22.2km/h 35.5% 0in /  0.0mm
12:49 62.4 °F /  16.9 °C 34.7 °F /  1.5 °C 30.1in /  1019.0hPa ONO 7.6mph /  12.2km/h 14mph /  22.5km/h 35.4% 0in /  0.0mm
12:54 62.4 °F /  16.9 °C 34.7 °F /  1.5 °C 30.1in /  1019.0hPa Oeste 7.6mph /  12.2km/h 15mph /  24.1km/h 35.4% 0in /  0.0mm
12:59 62.4 °F /  16.9 °C 34.7 °F /  1.5 °C 30.1in /  1018.7hPa Oeste 7.6mph /  12.2km/h 15mph /  24.1km/h 35.5% 0in /  0.0mm
13:04 62.4 °F /  16.9 °C 34.9 °F /  1.6 °C 30.1in /  1018.7hPa ONO 8.4mph /  13.5km/h 14.7mph /  23.7km/h 35.6% 0in /  0.0mm
13:09 62.8 °F /  17.1 °C 34.7 °F /  1.5 °C 30.1in /  1018.7hPa Oeste 8.5mph /  13.7km/h 15.2mph /  24.5km/h 35.1% 0in /  0.0mm
13:14 63 °F /  17.2 °C 34.9 °F /  1.6 °C 30.1in /  1018.5hPa Oeste 7.8mph /  12.5km/h 15mph /  24.1km/h 34.9% 0in /  0.0mm
13:19 63.1 °F /  17.3 °C 34.9 °F /  1.6 °C 30.1in /  1018.5hPa Oeste 7.6mph /  12.2km/h 14mph /  22.5km/h 34.8% 0in /  0.0mm
13:24 63.5 °F /  17.5 °C 34.9 °F /  1.6 °C 30.1in /  1018.5hPa OSO 7mph /  11.3km/h 10.4mph /  16.7km/h 34.5% 0in /  0.0mm
13:29 63.9 °F /  17.7 °C 35.2 °F /  1.8 °C 30.1in /  1018.2hPa ONO 6.9mph /  11.1km/h 12.7mph /  20.4km/h 34.4% 0in /  0.0mm
13:34 63.9 °F /  17.7 °C 34.9 °F /  1.6 °C 30.1in /  1018.2hPa Oeste 6.3mph /  10.2km/h 13mph /  20.9km/h 33.9% 0in /  0.0mm
13:39 63.9 °F /  17.7 °C 34.7 °F /  1.5 °C 30.1in /  1018.2hPa ONO 6.2mph /  10km/h 13mph /  20.9km/h 33.7% 0in /  0.0mm
13:44 64 °F /  17.8 °C 34.5 °F /  1.4 °C 30.1in /  1017.9hPa ONO 6.2mph /  10km/h 13mph /  20.9km/h 33.2% 0in /  0.0mm
13:49 64 °F /  17.8 °C 34.3 °F /  1.3 °C 30.1in /  1017.9hPa ONO 6.2mph /  10km/h 10mph /  16.1km/h 33.1% 0in /  0.0mm
13:54 64 °F /  17.8 °C 34.3 °F /  1.3 °C 30.1in /  1017.9hPa Oeste 4.7mph /  7.5km/h 8mph /  12.9km/h 33% 0in /  0.0mm
13:59 64.2 °F /  17.9 °C 34.5 °F /  1.4 °C 30.1in /  1017.5hPa ONO 4.3mph /  6.9km/h 6mph /  9.7km/h 33% 0in /  0.0mm
14:04 64.2 °F /  17.9 °C 34.5 °F /  1.4 °C 30.1in /  1017.5hPa Oeste 3.1mph /  5km/h 8.5mph /  13.7km/h 33.1% 0in /  0.0mm
14:09 64.6 °F /  18.1 °C 34.7 °F /  1.5 °C 30.1in /  1017.5hPa SSO 2.9mph /  4.7km/h 9.2mph /  14.8km/h 33% 0in /  0.0mm
14:14 64.8 °F /  18.2 °C 34.7 °F /  1.5 °C 30in /  1017.1hPa SO 4.3mph /  7km/h 12.7mph /  20.4km/h 32.8% 0in /  0.0mm
14:19 64.8 °F /  18.2 °C 34.9 °F /  1.6 °C 30in /  1017.1hPa OSO 4.7mph /  7.6km/h 13mph /  20.9km/h 32.8% 0in /  0.0mm
14:24 64.9 °F /  18.3 °C 35.1 °F /  1.7 °C 30in /  1017.1hPa OSO 5.1mph /  8.2km/h 11mph /  17.7km/h 33% 0in /  0.0mm
14:29 64.8 °F /  18.2 °C 35.1 °F /  1.7 °C 30in /  1016.9hPa SO 5.2mph /  8.4km/h 10.4mph /  16.7km/h 33% 0in /  0.0mm
14:34 64.9 °F /  18.3 °C 36 °F /  2.2 °C 30in /  1016.9hPa SSO 5.2mph /  8.4km/h 10mph /  16.1km/h 33.9% 0in /  0.0mm
14:39 65.5 °F /  18.6 °C 35.8 °F /  2.1 °C 30in /  1016.9hPa SSO 5.2mph /  8.4km/h 11.5mph /  18.5km/h 33.2% 0in /  0.0mm
14:44 65.7 °F /  18.7 °C 35.8 °F /  2.1 °C 30in /  1016.8hPa SSO 6mph /  9.7km/h 12mph /  19.3km/h 33% 0in /  0.0mm
14:49 65.7 °F /  18.7 °C 35.6 °F /  2 °C 30in /  1016.8hPa SSO 6.2mph /  10km/h 14mph /  22.5km/h 32.9% 0in /  0.0mm
14:54 65.5 °F /  18.6 °C 35.2 °F /  1.8 °C 30in /  1016.8hPa SSO 6.2mph /  10km/h 14mph /  22.5km/h 32.6% 0in /  0.0mm
14:59 65.7 °F /  18.7 °C 35.1 °F /  1.7 °C 30in /  1016.6hPa Sur 6.2mph /  10km/h 13mph /  20.9km/h 32.3% 0in /  0.0mm
15:04 65.7 °F /  18.7 °C 35.2 °F /  1.8 °C 30in /  1016.6hPa Sur 5.5mph /  8.9km/h 12.7mph /  20.4km/h 32.3% 0in /  0.0mm
15:09 65.7 °F /  18.7 °C 34.9 °F /  1.6 °C 30in /  1016.6hPa SSO 5.4mph /  8.7km/h 13mph /  20.9km/h 31.8% 0in /  0.0mm
15:14 65.7 °F /  18.7 °C 35.1 °F /  1.7 °C 30in /  1016.4hPa Sur 7.2mph /  11.6km/h 12mph /  19.3km/h 32% 0in /  0.0mm
15:19 65.8 °F /  18.8 °C 34.7 °F /  1.5 °C 30in /  1016.4hPa Sur 7.6mph /  12.2km/h 12.7mph /  20.4km/h 31.4% 0in /  0.0mm
15:24 66 °F /  18.9 °C 34.5 °F /  1.4 °C 30in /  1016.4hPa SSO 7mph /  11.3km/h 13mph /  20.9km/h 31% 0in /  0.0mm
15:29 66.4 °F /  19.1 °C 34.7 °F /  1.5 °C 30in /  1016.2hPa SSE 6.9mph /  11.1km/h 11mph /  17.7km/h 30.8% 0in /  0.0mm
15:34 66.6 °F /  19.2 °C 34.2 °F /  1.2 °C 30in /  1016.2hPa SSO 6.3mph /  10.2km/h 11.5mph /  18.5km/h 30% 0in /  0.0mm
15:39 66.7 °F /  19.3 °C 34.3 °F /  1.3 °C 30in /  1016.2hPa SSO 6.2mph /  10km/h 12mph /  19.3km/h 30% 0in /  0.0mm
15:44 66.7 °F /  19.3 °C 34.3 °F /  1.3 °C 30in /  1016.2hPa SO 5.3mph /  8.6km/h 9mph /  14.5km/h 30% 0in /  0.0mm
15:49 66.7 °F /  19.3 °C 34.3 °F /  1.3 °C 30in /  1016.2hPa SSO 5.2mph /  8.4km/h 8.1mph /  13km/h 30% 0in /  0.0mm
15:54 66.7 °F /  19.3 °C 34.3 °F /  1.3 °C 30in /  1016.2hPa SO 4.8mph /  7.7km/h 8.5mph /  13.7km/h 30% 0in /  0.0mm
15:59 66.7 °F /  19.3 °C 34.3 °F /  1.3 °C 30in /  1016.0hPa OSO 4.7mph /  7.6km/h 9mph /  14.5km/h 30% 0in /  0.0mm
16:04 66.7 °F /  19.3 °C 34.3 °F /  1.3 °C 30in /  1016.0hPa SSO 4.7mph /  7.6km/h 9.2mph /  14.8km/h 30% 0in /  0.0mm
16:09 66.4 °F /  19.1 °C 34.2 °F /  1.2 °C 30in /  1016.0hPa SSO 4.7mph /  7.6km/h 9mph /  14.5km/h 30.2% 0in /  0.0mm
16:14 66.4 °F /  19.1 °C 34.2 °F /  1.2 °C 30in /  1015.7hPa SSE 4.7mph /  7.6km/h 8.1mph /  13km/h 30.2% 0in /  0.0mm
16:19 66.4 °F /  19.1 °C 34 °F /  1.1 °C 30in /  1015.7hPa SE 4.7mph /  7.6km/h 8mph /  12.9km/h 30% 0in /  0.0mm
16:24 66.2 °F /  19 °C 34.5 °F /  1.4 °C 30in /  1015.7hPa Sur 4.7mph /  7.6km/h 7.4mph /  11.9km/h 30.9% 0in /  0.0mm
16:29 66.2 °F /  19 °C 34.7 °F /  1.5 °C 30in /  1015.7hPa SE 4.7mph /  7.6km/h 7mph /  11.3km/h 30.9% 0in /  0.0mm
16:34 66.4 °F /  19.1 °C 34.9 °F /  1.6 °C 30in /  1015.7hPa SE 4.3mph /  7km/h 7mph /  11.3km/h 31% 0in /  0.0mm
16:39 66.4 °F /  19.1 °C 34.9 °F /  1.6 °C 30in /  1015.7hPa SSE 4.3mph /  6.9km/h 11.4mph /  18.3km/h 31% 0in /  0.0mm
16:44 66 °F /  18.9 °C 34.5 °F /  1.4 °C 30in /  1015.6hPa SSE 5mph /  8.1km/h 12.7mph /  20.4km/h 31% 0in /  0.0mm
16:49 65.7 °F /  18.7 °C 34.7 °F /  1.5 °C 30in /  1015.6hPa SSE 5.2mph /  8.4km/h 13mph /  20.9km/h 31.7% 0in /  0.0mm
16:54 65.5 °F /  18.6 °C 35.1 °F /  1.7 °C 30in /  1015.6hPa SSE 7.1mph /  11.5km/h 12mph /  19.3km/h 32.3% 0in /  0.0mm
16:59 65.1 °F /  18.4 °C 36.9 °F /  2.7 °C 30in /  1015.5hPa SSE 7.6mph /  12.2km/h 13.8mph /  22.2km/h 35.2% 0in /  0.0mm
17:04 64.8 °F /  18.2 °C 39 °F /  3.9 °C 30in /  1015.5hPa SSE 8.4mph /  13.5km/h 18.4mph /  29.6km/h 38.7% 0in /  0.0mm
17:09 64.6 °F /  18.1 °C 39.7 °F /  4.3 °C 30in /  1015.5hPa Sur 8.5mph /  13.7km/h 18mph /  29km/h 40% 0in /  0.0mm
17:14 64.2 °F /  17.9 °C 39.4 °F /  4.1 °C 30in /  1015.3hPa Sur 9.8mph /  15.7km/h 16mph /  25.7km/h 40% 0in /  0.0mm
17:19 64.2 °F /  17.9 °C 39.4 °F /  4.1 °C 30in /  1015.3hPa SSE 10mph /  16.1km/h 14mph /  22.5km/h 40% 0in /  0.0mm
17:24 64 °F /  17.8 °C 38.8 °F /  3.8 °C 30in /  1015.3hPa SSE 8mph /  12.9km/h 15.2mph /  24.5km/h 39.4% 0in /  0.0mm
17:29 63.7 °F /  17.6 °C 38.3 °F /  3.5 °C 30in /  1015.2hPa Sur 7.6mph /  12.2km/h 15mph /  24.1km/h 39% 0in /  0.0mm
17:34 63.7 °F /  17.6 °C 38.8 °F /  3.8 °C 30in /  1015.2hPa SSE 8.9mph /  14.4km/h 15mph /  24.1km/h 39.9% 0in /  0.0mm
17:39 63.3 °F /  17.4 °C 39 °F /  3.9 °C 30in /  1015.2hPa Sur 9.2mph /  14.8km/h 15mph /  24.1km/h 40.7% 0in /  0.0mm
17:44 63.1 °F /  17.3 °C 39.7 °F /  4.3 °C 30in /  1015.2hPa Sur 8.8mph /  14.1km/h 14mph /  22.5km/h 42% 0in /  0.0mm
17:49 63 °F /  17.2 °C 40.5 °F /  4.7 °C 30in /  1015.2hPa Sur 8.7mph /  14km/h 13mph /  20.9km/h 43.6% 0in /  0.0mm
17:54 62.8 °F /  17.1 °C 41.2 °F /  5.1 °C 30in /  1015.3hPa Sur 7.8mph /  12.6km/h 13.8mph /  22.2km/h 45.2% 0in /  0.0mm
17:59 62.4 °F /  16.9 °C 41.9 °F /  5.5 °C 30in /  1015.3hPa Sur 7.6mph /  12.2km/h 14mph /  22.5km/h 46.9% 0in /  0.0mm
18:04 62.2 °F /  16.8 °C 42.4 °F /  5.8 °C 30in /  1015.3hPa Sur 8mph /  12.9km/h 13mph /  20.9km/h 48% 0in /  0.0mm
18:09 62.1 °F /  16.7 °C 42.8 °F /  6 °C 30in /  1015.3hPa Sur 8.1mph /  13km/h 13mph /  20.9km/h 49.2% 0in /  0.0mm
18:14 61.9 °F /  16.6 °C 43 °F /  6.1 °C 30in /  1015.2hPa Sur 7.5mph /  12.1km/h 13.8mph /  22.2km/h 50% 0in /  0.0mm
18:19 61.7 °F /  16.5 °C 43.2 °F /  6.2 °C 30in /  1015.2hPa Sur 7.4mph /  11.9km/h 14mph /  22.5km/h 50.8% 0in /  0.0mm
18:24 61.5 °F /  16.4 °C 43.2 °F /  6.2 °C 30in /  1015.2hPa Sur 8mph /  12.8km/h 13mph /  20.9km/h 51% 0in /  0.0mm
18:29 61.5 °F /  16.4 °C 43.2 °F /  6.2 °C 30in /  1015.1hPa Sur 8.1mph /  13km/h 12mph /  19.3km/h 51% 0in /  0.0mm
18:34 61.5 °F /  16.4 °C 43.2 °F /  6.2 °C 30in /  1015.1hPa Sur 7.1mph /  11.5km/h 11mph /  17.7km/h 51% 0in /  0.0mm
18:39 61.5 °F /  16.4 °C 43.5 °F /  6.4 °C 30in /  1015.3hPa Sur 6.9mph /  11.1km/h 10.4mph /  16.7km/h 51.5% 0in /  0.0mm
18:44 61.5 °F /  16.4 °C 43.3 °F /  6.3 °C 30in /  1015.3hPa Sur 6.5mph /  10.4km/h 10mph /  16.1km/h 51.3% 0in /  0.0mm
18:49 61.3 °F /  16.3 °C 43.2 °F /  6.2 °C 30in /  1015.3hPa Sur 6.4mph /  10.3km/h 9.2mph /  14.8km/h 51.1% 0in /  0.0mm
18:54 61.3 °F /  16.3 °C 43 °F /  6.1 °C 30in /  1015.3hPa Sur 6mph /  9.6km/h 9mph /  14.5km/h 51% 0in /  0.0mm
18:59 61.3 °F /  16.3 °C 43 °F /  6.1 °C 30in /  1015.1hPa SSO 5.9mph /  9.5km/h 7mph /  11.3km/h 51% 0in /  0.0mm
19:04 61.3 °F /  16.3 °C 43 °F /  6.1 °C 30in /  1015.1hPa SSO 4.3mph /  6.9km/h 6mph /  9.7km/h 51% 0in /  0.0mm
19:09 61.3 °F /  16.3 °C 43 °F /  6.1 °C 30in /  1015.2hPa SSO 4mph /  6.5km/h 5.8mph /  9.3km/h 51% 0in /  0.0mm
19:14 61.3 °F /  16.3 °C 43.2 °F /  6.2 °C 30in /  1015.2hPa Oeste 3.1mph /  5km/h 6mph /  9.7km/h 51.2% 0in /  0.0mm
19:19 61 °F /  16.1 °C 43.5 °F /  6.4 °C 30in /  1015.2hPa North 2.9mph /  4.7km/h 6mph /  9.7km/h 52.6% 0in /  0.0mm
19:24 60.4 °F /  15.8 °C 43.7 °F /  6.5 °C 30in /  1015.4hPa North 2.9mph /  4.7km/h 5mph /  8km/h 53.8% 0in /  0.0mm
19:29 60.3 °F /  15.7 °C 43.5 °F /  6.4 °C 30in /  1015.4hPa North 2.9mph /  4.7km/h 3.6mph /  5.8km/h 54.2% 0in /  0.0mm
19:34 59.9 °F /  15.5 °C 43.7 °F /  6.5 °C 30in /  1015.4hPa NNO 2.2mph /  3.5km/h 5.2mph /  8.4km/h 55% 0in /  0.0mm
19:39 59.5 °F /  15.3 °C 43.3 °F /  6.3 °C 30in /  1015.6hPa NO 2mph /  3.2km/h 5.2mph /  8.4km/h 55% 0in /  0.0mm
19:44 59.4 °F /  15.2 °C 43.7 °F /  6.5 °C 30in /  1015.6hPa ONO 2.7mph /  4.4km/h 5mph /  8km/h 55.9% 0in /  0.0mm
19:49 59.4 °F /  15.2 °C 43.7 °F /  6.5 °C 30in /  1015.6hPa OSO 2.9mph /  4.7km/h 9.7mph /  15.6km/h 56% 0in /  0.0mm
19:54 59.5 °F /  15.3 °C 43.9 °F /  6.6 °C 30in /  1015.8hPa SO 3.5mph /  5.6km/h 10mph /  16.1km/h 56% 0in /  0.0mm
19:59 60.1 °F /  15.6 °C 44.4 °F /  6.9 °C 30in /  1015.8hPa OSO 3.6mph /  5.8km/h 10.7mph /  17.2km/h 56% 0in /  0.0mm
20:04 60.3 °F /  15.7 °C 44.4 °F /  6.9 °C 30in /  1015.8hPa Oeste 5mph /  8km/h 11mph /  17.7km/h 56% 0in /  0.0mm
20:09 60.4 °F /  15.8 °C 44.6 °F /  7 °C 30in /  1016.0hPa OSO 5.2mph /  8.4km/h 9mph /  14.5km/h 56% 0in /  0.0mm
20:14 60.4 °F /  15.8 °C 44.8 °F /  7.1 °C 30in /  1016.0hPa Oeste 4.2mph /  6.7km/h 7.4mph /  11.9km/h 56% 0in /  0.0mm
20:19 60.4 °F /  15.8 °C 44.8 °F /  7.1 °C 30in /  1016.0hPa ONO 4mph /  6.5km/h 7.4mph /  11.9km/h 56% 0in /  0.0mm
20:24 60.4 °F /  15.8 °C 44.8 °F /  7.1 °C 30in /  1016.0hPa ONO 3.3mph /  5.3km/h 7mph /  11.3km/h 56% 0in /  0.0mm
20:29 60.4 °F /  15.8 °C 44.8 °F /  7.1 °C 30in /  1015.8hPa SO 3.1mph /  5km/h 5mph /  8km/h 56% 0in /  0.0mm
20:34 60.3 °F /  15.7 °C 45 °F /  7.2 °C 30in /  1015.8hPa Oeste 2.2mph /  3.5km/h 5.8mph /  9.3km/h 56.7% 0in /  0.0mm
20:39 60.3 °F /  15.7 °C 45 °F /  7.2 °C 30in /  1015.8hPa Oeste 2mph /  3.2km/h 6mph /  9.7km/h 57% 0in /  0.0mm
20:44 60.3 °F /  15.7 °C 45 °F /  7.2 °C 30in /  1015.7hPa OSO 2.7mph /  4.4km/h 6.2mph /  10km/h 57% 0in /  0.0mm
20:49 60.3 °F /  15.7 °C 45 °F /  7.2 °C 30in /  1015.7hPa SO 2.9mph /  4.7km/h 6mph /  9.7km/h 56.9% 0in /  0.0mm
20:54 60.3 °F /  15.7 °C 44.4 °F /  6.9 °C 30in /  1015.7hPa OSO 3.5mph /  5.6km/h 6.2mph /  10km/h 55.8% 0in /  0.0mm
20:59 60.4 °F /  15.8 °C 43 °F /  6.1 °C 30in /  1015.6hPa Oeste 3.6mph /  5.8km/h 10.7mph /  17.2km/h 52.5% 0in /  0.0mm
21:04 60.8 °F /  16 °C 42.3 °F /  5.7 °C 30in /  1015.6hPa Oeste 4.5mph /  7.3km/h 11mph /  17.7km/h 50.4% 0in /  0.0mm
21:09 61 °F /  16.1 °C 41.5 °F /  5.3 °C 30in /  1015.6hPa Oeste 4.7mph /  7.6km/h 10.4mph /  16.7km/h 48.7% 0in /  0.0mm
21:14 61.2 °F /  16.2 °C 40.5 °F /  4.7 °C 30in /  1015.5hPa Oeste 5.7mph /  9.2km/h 17.5mph /  28.2km/h 46.5% 0in /  0.0mm
21:19 61.3 °F /  16.3 °C 40.6 °F /  4.8 °C 30in /  1015.5hPa Oeste 5.9mph /  9.5km/h 18.4mph /  29.6km/h 46.4% 0in /  0.0mm
21:24 61.2 °F /  16.2 °C 41.5 °F /  5.3 °C 30in /  1015.5hPa OSO 9mph /  14.5km/h 18.4mph /  29.6km/h 48.7% 0in /  0.0mm
21:29 60.6 °F /  15.9 °C 42.3 °F /  5.7 °C 30in /  1015.4hPa OSO 9.7mph /  15.6km/h 14mph /  22.5km/h 51% 0in /  0.0mm
21:34 60.3 °F /  15.7 °C 43 °F /  6.1 °C 30in /  1015.4hPa SO 7.4mph /  11.9km/h 12mph /  19.3km/h 53% 0in /  0.0mm
21:39 59.9 °F /  15.5 °C 43.5 °F /  6.4 °C 30in /  1015.4hPa SO 6.9mph /  11.1km/h 12mph /  19.3km/h 54.6% 0in /  0.0mm
21:44 59.4 °F /  15.2 °C 44.2 °F /  6.8 °C 30in /  1015.4hPa SO 5.7mph /  9.1km/h 14.7mph /  23.7km/h 57.3% 0in /  0.0mm
21:49 58.8 °F /  14.9 °C 44.8 °F /  7.1 °C 30in /  1015.4hPa OSO 5.4mph /  8.7km/h 15mph /  24.1km/h 59.8% 0.02in /  0.5mm
21:54 58.3 °F /  14.6 °C 45.5 °F /  7.5 °C 30in /  1015.4hPa SO 6.2mph /  10km/h 13mph /  20.9km/h 62.3% 0.02in /  0.5mm
21:59 57.7 °F /  14.3 °C 46.2 °F /  7.9 °C 30in /  1015.1hPa SO 6.4mph /  10.3km/h 7mph /  11.3km/h 65.1% 0.02in /  0.5mm
22:04 57.4 °F /  14.1 °C 46.2 °F /  7.9 °C 30in /  1015.1hPa SO 4.6mph /  7.4km/h 9.2mph /  14.8km/h 66.3% 0.02in /  0.5mm
22:09 57.2 °F /  14 °C 46.4 °F /  8 °C 30in /  1015.1hPa SO 4.3mph /  6.9km/h 9mph /  14.5km/h 67.2% 0.02in /  0.5mm
22:14 57 °F /  13.9 °C 46.2 °F /  7.9 °C 30in /  1014.9hPa SSO 4.7mph /  7.5km/h 8.1mph /  13km/h 67% 0.02in /  0.5mm
22:19 57.4 °F /  14.1 °C 46.2 °F /  7.9 °C 30in /  1014.9hPa SSO 4.7mph /  7.6km/h 8.1mph /  13km/h 66.3% 0.03in /  0.8mm
22:24 57.4 °F /  14.1 °C 46.2 °F /  7.9 °C 30in /  1014.9hPa SO 4.3mph /  7km/h 7mph /  11.3km/h 66.3% 0.03in /  0.8mm
22:29 57.4 °F /  14.1 °C 46.9 °F /  8.3 °C 30in /  1014.8hPa Oeste 4.3mph /  6.9km/h 6mph /  9.7km/h 67.9% 0.03in /  0.8mm
22:34 57.4 °F /  14.1 °C 47.5 °F /  8.6 °C 30in /  1014.8hPa OSO 3.4mph /  5.4km/h 5mph /  8km/h 69.6% 0.04in /  1.0mm
22:39 57 °F /  13.9 °C 47.5 °F /  8.6 °C 30in /  1014.8hPa SO 3.1mph /  5km/h 5mph /  8km/h 70.4% 0.04in /  1.0mm
22:44 56.8 °F /  13.8 °C 47.5 °F /  8.6 °C 30in /  1014.7hPa SSO 2.9mph /  4.7km/h 6.9mph /  11.1km/h 70.7% 0.04in /  1.0mm
22:49 56.8 °F /  13.8 °C 47.3 °F /  8.5 °C 30in /  1014.7hPa SSO 2.9mph /  4.7km/h 7mph /  11.3km/h 70.3% 0.04in /  1.0mm
22:54 56.8 °F /  13.8 °C 47.3 °F /  8.5 °C 30in /  1014.7hPa Oeste 3.5mph /  5.6km/h 7mph /  11.3km/h 70.1% 0.02in /  0.5mm
22:59 56.8 °F /  13.8 °C 47.7 °F /  8.7 °C 30in /  1014.3hPa Oeste 3.6mph /  5.8km/h 5mph /  8km/h 71.4% 0.02in /  0.5mm
23:04 56.8 °F /  13.8 °C 48 °F /  8.9 °C 30in /  1014.3hPa Oeste 2.5mph /  4.1km/h 5.2mph /  8.4km/h 72.5% 0.02in /  0.5mm
23:09 56.7 °F /  13.7 °C 48 °F /  8.9 °C 30in /  1014.3hPa OSO 2.4mph /  3.9km/h 5.9mph /  9.5km/h 73% 0.02in /  0.5mm
23:14 56.3 °F /  13.5 °C 48 °F /  8.9 °C 29.9in /  1014.1hPa OSO 3mph /  4.8km/h 6mph /  9.7km/h 73.8% 0.02in /  0.5mm
23:19 56.1 °F /  13.4 °C 47.8 °F /  8.8 °C 29.9in /  1014.1hPa ONO 3.1mph /  5km/h 6mph /  9.7km/h 74% 0.02in /  0.5mm
23:24 56.1 °F /  13.4 °C 48.2 °F /  9 °C 29.9in /  1014.1hPa NO 2.5mph /  4.1km/h 5mph /  8km/h 75% 0.01in /  0.2mm
23:29 55.9 °F /  13.3 °C 48.6 °F /  9.2 °C 29.9in /  1013.9hPa NO 2.4mph /  3.9km/h 4mph /  6.4km/h 76.2% 0.01in /  0.2mm
23:34 55.8 °F /  13.2 °C 48.7 °F /  9.3 °C 29.9in /  1013.9hPa NNO 2.1mph /  3.3km/h 3.6mph /  5.8km/h 77.6% 0.01in /  0.2mm
23:39 55.4 °F /  13 °C 48.9 °F /  9.4 °C 29.9in /  1013.9hPa Este 2mph /  3.2km/h 4mph /  6.4km/h 78.4% 0in /  0.0mm
23:44 55.2 °F /  12.9 °C 48.9 °F /  9.4 °C 29.9in /  1013.8hPa Este 1.5mph /  2.4km/h 3.6mph /  5.8km/h 79% 0in /  0.0mm
23:49 55.2 °F /  12.9 °C 48.6 °F /  9.2 °C 29.9in /  1013.8hPa ONO 1.4mph /  2.2km/h 5.8mph /  9.3km/h 78.4% 0in /  0.0mm
23:54 55.2 °F /  12.9 °C 48.6 °F /  9.2 °C 29.9in /  1013.8hPa NO 1.9mph /  3km/h 6mph /  9.7km/h 78% 0in /  0.0mm
23:59 55.2 °F /  12.9 °C 48.6 °F /  9.2 °C 29.9in /  1013.6hPa Oeste 2mph /  3.2km/h 6mph /  9.7km/h 78% 0in /  0.0mm
Murcia-Puente Tocinos, España
Compliments of Weather Underground - 3 mb

La estación de MeteoMurcia.com, publica sus datos en los siguientes proyectos:

Weather Underground PWS IMURCIAP2 Meteoclimatic www.awekas.at

W3Counter
Web Analytics